Time;durP1;ratioP1;P1;durP2;ratioP2;P2;SDS_P1;SDS_P2;PMS_P1;PMS_P2;Temp;Humidity;BMP_temperature;BMP_pressure;BME280_temperature;BME280_humidity;BME280_pressure;Samples;Min_cycle;Max_cycle;Signal;HPM_P1;HPM_P2
2022/03/31 00:00:41;;;;;;;69.80;46.40;;;;;;;7.10;89.04;94933.27;108081;1270;35318;-74
2022/03/31 00:03:14;;;;;;;69.50;46.90;;;;;;;7.06;89.05;94935.09;108098;1270;41806;-73
2022/03/31 00:05:46;;;;;;;77.70;51.20;;;;;;;7.06;89.16;94934.31;108076;1270;32677;-73
2022/03/31 00:08:19;;;;;;;77.00;51.40;;;;;;;7.03;89.23;94933.94;108086;1270;40491;-74
2022/03/31 00:10:52;;;;;;;82.50;53.00;;;;;;;7.03;89.50;94936.20;108066;1270;40392;-73
2022/03/31 00:13:25;;;;;;;86.60;51.40;;;;;;;7.00;89.58;94932.10;108077;1270;33308;-73
2022/03/31 00:15:58;;;;;;;86.70;54.60;;;;;;;6.94;89.54;94933.71;108049;1270;43527;-73
2022/03/31 00:18:31;;;;;;;90.50;53.60;;;;;;;6.92;89.90;94931.48;108090;1270;40733;-73
2022/03/31 00:21:02;;;;;;;103.30;53.50;;;;;;;6.94;90.01;94929.17;108080;1270;43193;-73
2022/03/31 00:23:36;;;;;;;89.50;53.80;;;;;;;6.94;90.20;94934.66;108165;1270;29799;-73
2022/03/31 00:26:08;;;;;;;91.50;51.70;;;;;;;6.95;90.39;94932.98;108119;1270;35710;-73
2022/03/31 00:28:39;;;;;;;86.40;54.20;;;;;;;6.97;90.46;94934.71;108049;1270;43369;-74
2022/03/31 00:31:10;;;;;;;91.70;50.40;;;;;;;6.96;90.51;94929.81;108042;1270;39071;-74
2022/03/31 00:33:40;;;;;;;80.70;50.50;;;;;;;6.97;90.69;94931.90;107923;1270;193861;-74
2022/03/31 00:36:13;;;;;;;90.30;54.40;;;;;;;6.97;90.56;94933.42;108069;1270;34618;-74
2022/03/31 00:39:28;;;;;;;82.50;51.60;;;;;;;6.98;90.73;94935.00;108180;1270;31477;-73
2022/03/31 00:41:39;;;;;;;78.70;50.20;;;;;;;6.98;90.69;94937.61;108153;1270;42516;-73
2022/03/31 00:44:11;;;;;;;70.70;43.20;;;;;;;6.98;90.80;94940.83;108089;1270;41956;-74
2022/03/31 00:46:51;;;;;;;69.80;46.40;;;;;;;6.90;90.83;94940.76;108082;1270;30174;-73
2022/03/31 00:49:23;;;;;;;75.90;46.20;;;;;;;6.74;91.12;94941.59;108075;1270;28555;-73
2022/03/31 00:51:55;;;;;;;79.60;47.60;;;;;;;6.70;91.35;94938.48;108109;1270;41740;-74
2022/03/31 00:54:27;;;;;;;67.90;41.30;;;;;;;6.71;91.51;94939.81;108096;1270;43863;-73
2022/03/31 00:57:00;;;;;;;77.60;43.80;;;;;;;6.63;91.29;94942.77;108093;1270;45539;-73
2022/03/31 00:59:32;;;;;;;81.20;43.40;;;;;;;6.56;91.54;94941.64;108045;1270;44413;-74
2022/03/31 01:02:03;;;;;;;68.30;39.40;;;;;;;6.48;91.81;94941.78;107995;1271;31270;-73
2022/03/31 01:04:35;;;;;;;82.90;41.00;;;;;;;6.45;91.80;94941.41;108143;1270;29482;-74
2022/03/31 01:07:06;;;;;;;58.40;39.50;;;;;;;6.46;92.16;94940.66;108136;1270;40415;-73
2022/03/31 01:09:37;;;;;;;60.10;38.10;;;;;;;6.51;92.28;94940.20;108133;1270;37493;-73
2022/03/31 01:12:10;;;;;;;54.50;37.00;;;;;;;6.59;92.27;94938.53;107938;1271;49407;-74
2022/03/31 01:14:41;;;;;;;49.30;33.70;;;;;;;6.61;92.22;94938.44;108050;1270;33179;-73
2022/03/31 01:17:12;;;;;;;60.60;34.70;;;;;;;6.60;92.31;94942.23;107983;1272;32942;-74
2022/03/31 01:19:43;;;;;;;46.90;31.30;;;;;;;6.59;92.19;94941.46;108132;1270;43094;-74
2022/03/31 01:22:14;;;;;;;52.40;30.90;;;;;;;6.59;92.10;94942.62;108024;1271;43660;-74
2022/03/31 01:24:46;;;;;;;49.80;29.80;;;;;;;6.57;92.29;94943.25;108107;1270;32284;-73
2022/03/31 01:27:17;;;;;;;42.80;28.90;;;;;;;6.56;92.10;94949.10;108026;1270;47751;-74
2022/03/31 01:29:47;;;;;;;42.80;28.30;;;;;;;6.58;92.40;94946.29;108125;1270;34805;-73
2022/03/31 01:32:18;;;;;;;39.40;26.10;;;;;;;6.56;92.26;94945.64;108125;1270;38551;-73
2022/03/31 01:34:50;;;;;;;35.10;24.50;;;;;;;6.50;92.10;94947.22;108110;1270;41710;-73
2022/03/31 01:37:21;;;;;;;32.60;23.20;;;;;;;6.45;92.14;94944.52;108144;1270;34996;-73
2022/03/31 01:39:52;;;;;;;29.10;19.90;;;;;;;6.41;92.05;94945.55;108093;1270;41637;-74
2022/03/31 01:42:23;;;;;;;26.60;19.50;;;;;;;6.38;92.19;94941.50;108097;1270;36474;-74
2022/03/31 01:44:54;;;;;;;27.50;19.10;;;;;;;6.33;92.01;94946.39;108093;1270;48750;-74
2022/03/31 01:47:25;;;;;;;24.80;17.50;;;;;;;6.30;92.08;94946.13;108083;1270;33039;-73
2022/03/31 01:49:56;;;;;;;23.10;16.10;;;;;;;6.29;91.95;94943.30;108118;1270;42061;-74
2022/03/31 01:52:27;;;;;;;22.20;15.50;;;;;;;6.26;92.10;94944.05;108020;1270;43058;-73
2022/03/31 01:54:59;;;;;;;19.40;14.20;;;;;;;6.23;91.99;94952.38;108125;1270;39861;-73
2022/03/31 01:57:29;;;;;;;20.30;15.40;;;;;;;6.19;91.97;94952.33;108065;1270;40250;-73
2022/03/31 02:00:02;;;;;;;20.00;14.60;;;;;;;6.14;91.95;94952.84;108126;1270;27796;-73
2022/03/31 02:02:33;;;;;;;21.00;14.10;;;;;;;6.11;91.91;94952.10;108167;1270;37643;-74
2022/03/31 02:05:06;;;;;;;20.30;14.10;;;;;;;6.09;91.95;94948.89;108134;1270;42180;-73
2022/03/31 02:07:38;;;;;;;19.00;13.00;;;;;;;6.02;91.71;94952.77;108045;1270;49106;-73
2022/03/31 02:10:13;;;;;;;17.20;14.00;;;;;;;5.96;91.90;94954.69;108082;1270;32191;-74
2022/03/31 02:12:44;;;;;;;16.70;12.20;;;;;;;5.94;91.93;94956.77;108062;1270;44881;-74
2022/03/31 02:15:15;;;;;;;17.80;12.50;;;;;;;5.90;91.96;94959.75;108042;1270;39660;-73
2022/03/31 02:17:46;;;;;;;19.10;13.50;;;;;;;5.85;91.75;94957.04;108039;1270;43440;-73
2022/03/31 02:20:17;;;;;;;18.90;14.60;;;;;;;5.81;91.62;94959.16;108026;1270;48638;-74
2022/03/31 02:22:48;;;;;;;18.60;14.00;;;;;;;5.79;91.94;94961.39;108071;1270;39880;-73
2022/03/31 02:25:19;;;;;;;18.80;13.60;;;;;;;5.77;91.82;94967.05;108124;1270;39947;-73
2022/03/31 02:27:54;;;;;;;19.10;14.60;;;;;;;5.72;91.80;94963.71;107958;1271;41347;-73
2022/03/31 02:30:26;;;;;;;18.20;14.20;;;;;;;5.67;91.82;94958.07;108048;1270;45208;-73
2022/03/31 02:32:59;;;;;;;19.30;14.70;;;;;;;5.66;91.86;94961.20;108086;1270;43982;-73
2022/03/31 02:35:31;;;;;;;20.50;14.80;;;;;;;5.65;91.90;94956.42;108102;1270;40778;-73
2022/03/31 02:38:02;;;;;;;18.90;14.60;;;;;;;5.61;91.96;94955.20;108101;1270;38958;-73
2022/03/31 02:40:33;;;;;;;19.40;14.10;;;;;;;5.57;91.96;94955.79;108050;1269;41389;-73
2022/03/31 02:43:04;;;;;;;18.90;15.10;;;;;;;5.54;91.80;94952.90;108015;1271;41921;-73
2022/03/31 02:45:35;;;;;;;17.00;13.50;;;;;;;5.51;91.90;94954.32;108104;1270;42083;-73
2022/03/31 02:48:08;;;;;;;17.40;13.10;;;;;;;5.49;91.91;94954.34;108154;1270;42577;-73
2022/03/31 02:50:39;;;;;;;17.60;13.50;;;;;;;5.47;91.97;94960.61;108132;1270;43253;-74
2022/03/31 02:56:00;;;;;;;17.90;14.20;;;;;;;5.51;92.00;94962.79;108119;1270;43588;-73
2022/03/31 02:58:31;;;;;;;18.40;13.60;;;;;;;5.50;92.00;94963.58;108070;1270;87047;-73
2022/03/31 03:01:02;;;;;;;17.60;13.30;;;;;;;5.47;91.86;94963.92;108131;1270;31088;-73
2022/03/31 03:03:33;;;;;;;16.80;12.80;;;;;;;5.48;92.09;94966.34;108290;1270;26509;-73
2022/03/31 03:06:04;;;;;;;14.90;12.30;;;;;;;5.45;91.88;94962.34;108180;1270;32066;-73
2022/03/31 03:08:35;;;;;;;16.80;11.90;;;;;;;5.42;92.01;94965.23;108096;1270;44158;-73
2022/03/31 03:11:07;;;;;;;18.90;10.90;;;;;;;5.34;91.70;94968.27;108139;1270;72620;-73
2022/03/31 03:13:38;;;;;;;12.90;9.90;;;;;;;5.29;91.87;94965.93;108114;1270;38053;-73
2022/03/31 03:16:09;;;;;;;14.20;10.30;;;;;;;5.22;91.79;94966.05;108133;1270;42030;-74
2022/03/31 03:18:42;;;;;;;14.20;10.90;;;;;;;5.19;91.90;94965.17;108152;1270;43352;-73
2022/03/31 03:21:13;;;;;;;14.60;11.20;;;;;;;5.16;92.00;94969.31;108154;1271;38030;-73
2022/03/31 03:23:44;;;;;;;15.00;10.80;;;;;;;5.15;91.84;94968.70;107953;1272;43084;-73
2022/03/31 03:26:15;;;;;;;13.60;10.20;;;;;;;5.15;92.05;94967.54;107996;1270;40302;-73
2022/03/31 03:28:46;;;;;;;13.10;10.50;;;;;;;5.14;91.97;94970.56;108179;1270;32860;-73
2022/03/31 03:31:17;;;;;;;14.80;11.30;;;;;;;5.13;91.89;94969.68;108076;1270;33129;-73
2022/03/31 03:33:48;;;;;;;16.00;11.90;;;;;;;5.13;92.00;94971.57;108156;1270;33037;-73
2022/03/31 03:36:19;;;;;;;17.30;12.40;;;;;;;5.12;92.07;94974.84;108159;1270;38134;-73
2022/03/31 03:38:52;;;;;;;15.30;11.80;;;;;;;5.10;92.08;94973.77;108114;1270;42652;-73
2022/03/31 03:41:23;;;;;;;16.70;12.00;;;;;;;5.08;92.01;94974.69;108119;1270;41139;-73
2022/03/31 03:43:54;;;;;;;18.90;13.10;;;;;;;5.04;91.87;94972.05;108065;1270;31733;-73
2022/03/31 03:46:25;;;;;;;16.00;12.80;;;;;;;5.02;91.78;94972.92;108043;1271;43589;-73
2022/03/31 03:48:56;;;;;;;15.90;12.40;;;;;;;4.98;91.62;94970.14;108137;1271;41709;-73
2022/03/31 03:51:27;;;;;;;18.60;13.10;;;;;;;4.92;91.57;94972.00;108090;1270;37971;-73
2022/03/31 03:53:58;;;;;;;15.20;12.90;;;;;;;4.86;91.71;94971.23;108087;1270;29848;-73
2022/03/31 03:56:29;;;;;;;18.60;13.40;;;;;;;4.77;91.59;94971.13;108076;1270;37199;-72
2022/03/31 03:59:00;;;;;;;18.50;13.10;;;;;;;4.78;91.67;94978.95;108017;1271;45074;-73
2022/03/31 04:01:31;;;;;;;16.50;13.20;;;;;;;4.78;91.78;94977.21;108121;1270;43332;-73
2022/03/31 04:04:03;;;;;;;19.20;13.70;;;;;;;4.77;91.73;94978.52;108118;1270;31755;-73
2022/03/31 04:06:34;;;;;;;17.30;13.20;;;;;;;4.80;91.92;94977.41;108014;1271;47707;-73
2022/03/31 04:09:05;;;;;;;19.70;14.60;;;;;;;4.81;91.79;94979.35;108166;1270;36725;-72
2022/03/31 04:11:36;;;;;;;18.20;12.80;;;;;;;4.78;91.77;94978.42;108144;1270;33847;-73
2022/03/31 04:14:07;;;;;;;16.60;13.40;;;;;;;4.76;91.61;94979.16;107986;1273;30824;-72
2022/03/31 04:16:38;;;;;;;16.40;13.60;;;;;;;4.76;91.62;94982.16;108048;1271;35927;-73
2022/03/31 04:19:09;;;;;;;16.80;12.90;;;;;;;4.71;91.59;94987.90;108050;1271;38054;-74
2022/03/31 04:21:40;;;;;;;15.50;12.40;;;;;;;4.68;91.64;94987.98;108085;1270;33199;-73
2022/03/31 04:24:11;;;;;;;14.90;12.40;;;;;;;4.72;91.53;94989.19;108071;1271;43247;-73
2022/03/31 04:26:43;;;;;;;16.90;13.40;;;;;;;4.70;91.52;94989.86;108083;1271;42536;-73
2022/03/31 04:29:14;;;;;;;15.40;12.90;;;;;;;4.69;91.45;94991.17;108164;1270;31153;-73
2022/03/31 04:31:45;;;;;;;15.80;12.60;;;;;;;4.71;91.53;94997.76;108104;1270;41468;-73
2022/03/31 04:34:18;;;;;;;16.00;13.20;;;;;;;4.61;91.31;95003.42;108148;1270;32593;-73
2022/03/31 04:36:50;;;;;;;16.10;12.60;;;;;;;4.56;91.40;95005.77;108122;1270;40176;-73
2022/03/31 04:39:21;;;;;;;16.60;12.40;;;;;;;4.55;91.51;94998.46;108100;1271;42222;-72
2022/03/31 04:41:52;;;;;;;15.10;11.80;;;;;;;4.55;91.58;94998.90;108104;1271;39589;-73
2022/03/31 04:44:23;;;;;;;15.70;12.00;;;;;;;4.47;91.46;94999.55;108068;1270;28470;-73
2022/03/31 04:46:54;;;;;;;15.60;11.70;;;;;;;4.44;91.45;95001.31;108033;1271;34993;-73
2022/03/31 04:49:25;;;;;;;16.70;13.10;;;;;;;4.35;91.29;95001.88;108052;1271;41236;-73
2022/03/31 04:51:56;;;;;;;14.70;11.40;;;;;;;4.35;91.67;95007.02;107997;1271;43279;-73
2022/03/31 04:54:27;;;;;;;13.40;11.60;;;;;;;4.37;91.73;95008.22;108017;1271;40783;-72
2022/03/31 04:56:59;;;;;;;13.40;11.30;;;;;;;4.38;91.74;95007.90;108013;1271;36476;-73
2022/03/31 04:59:30;;;;;;;14.30;11.20;;;;;;;4.40;91.70;95012.86;107997;1271;42758;-72
2022/03/31 05:02:00;;;;;;;13.40;10.90;;;;;;;4.44;91.84;95017.27;108004;1271;37101;-72
2022/03/31 05:04:32;;;;;;;13.00;10.50;;;;;;;4.50;91.89;95011.80;107979;1271;37720;-73
2022/03/31 05:07:04;;;;;;;13.90;11.60;;;;;;;4.51;91.66;95006.66;108071;1270;29290;-73
2022/03/31 05:09:35;;;;;;;13.80;10.40;;;;;;;4.52;91.43;95004.39;108023;1271;28239;-72
2022/03/31 05:12:09;;;;;;;13.60;11.40;;;;;;;4.50;91.54;95004.51;108106;1270;29095;-72
2022/03/31 05:14:40;;;;;;;15.10;11.90;;;;;;;4.48;91.55;95004.58;108049;1270;32837;-73
2022/03/31 05:17:11;;;;;;;12.50;10.20;;;;;;;4.46;91.53;95007.64;108069;1271;41044;-73
2022/03/31 05:19:42;;;;;;;13.80;11.30;;;;;;;4.43;91.50;95015.02;108061;1271;33479;-73
2022/03/31 05:22:13;;;;;;;13.10;10.70;;;;;;;4.46;91.52;95017.81;108029;1271;43831;-73
2022/03/31 05:24:44;;;;;;;15.10;12.10;;;;;;;4.46;91.56;95020.81;107994;1271;41718;-73
2022/03/31 05:27:15;;;;;;;13.30;11.00;;;;;;;4.43;91.53;95028.09;108067;1271;40143;-72
2022/03/31 05:29:46;;;;;;;18.10;11.50;;;;;;;4.38;91.41;95026.25;108057;1271;32838;-73
2022/03/31 05:32:17;;;;;;;14.00;10.80;;;;;;;4.33;91.22;95026.50;107977;1271;41847;-72
2022/03/31 05:34:48;;;;;;;14.90;12.40;;;;;;;4.30;91.32;95032.73;107996;1271;39984;-72
2022/03/31 05:37:19;;;;;;;15.10;12.00;;;;;;;4.27;91.33;95042.73;108012;1271;41594;-72
2022/03/31 05:39:50;;;;;;;14.20;11.00;;;;;;;4.25;91.36;95049.77;107994;1271;41121;-72
2022/03/31 05:42:21;;;;;;;15.60;11.60;;;;;;;4.26;91.32;95047.98;108038;1271;38549;-72
2022/03/31 05:44:53;;;;;;;15.20;10.20;;;;;;;4.19;91.23;95044.04;108009;1271;33406;-72
2022/03/31 05:47:23;;;;;;;14.10;10.20;;;;;;;4.11;91.27;95041.45;108058;1271;49435;-72
2022/03/31 05:49:55;;;;;;;12.90;10.50;;;;;;;4.05;91.22;95041.23;108024;1270;41672;-72
2022/03/31 05:52:26;;;;;;;10.60;8.90;;;;;;;3.93;90.98;95039.02;107861;1271;37624;-72
2022/03/31 05:54:57;;;;;;;9.20;7.40;;;;;;;3.83;90.96;95042.67;108023;1271;39143;-72
2022/03/31 05:57:28;;;;;;;10.80;8.40;;;;;;;3.81;91.20;95042.69;108041;1270;44224;-72
2022/03/31 05:59:59;;;;;;;11.70;8.70;;;;;;;3.80;91.33;95040.70;107903;1273;42320;-72
2022/03/31 06:02:30;;;;;;;10.50;8.00;;;;;;;3.79;91.35;95040.33;108027;1271;35801;-72
2022/03/31 06:05:01;;;;;;;15.20;10.30;;;;;;;3.78;91.35;95041.85;108026;1270;40928;-72
2022/03/31 06:07:32;;;;;;;13.40;8.70;;;;;;;3.75;91.33;95045.48;108031;1271;39598;-73
2022/03/31 06:10:03;;;;;;;13.20;8.90;;;;;;;3.71;91.35;95042.07;108030;1271;31132;-72
2022/03/31 06:12:35;;;;;;;23.10;11.70;;;;;;;3.73;91.39;95039.13;107966;1273;40422;-72
2022/03/31 06:15:08;;;;;;;20.60;13.00;;;;;;;3.71;91.23;95040.60;107965;1273;27124;-72
2022/03/31 06:17:43;;;;;;;9.90;7.30;;;;;;;3.67;91.31;95039.06;108103;1270;34698;-72
2022/03/31 06:20:15;;;;;;;12.60;9.90;;;;;;;3.65;91.28;95041.41;108010;1271;44159;-72
2022/03/31 06:22:46;;;;;;;16.10;11.30;;;;;;;3.65;91.43;95045.92;107991;1270;44075;-72
2022/03/31 06:25:17;;;;;;;14.00;9.80;;;;;;;3.66;91.38;95049.76;108025;1270;43837;-72
2022/03/31 06:27:49;;;;;;;8.80;6.60;;;;;;;3.61;91.22;95053.29;108034;1271;31433;-72
2022/03/31 06:30:20;;;;;;;8.60;6.00;;;;;;;3.52;91.06;95058.42;108009;1270;43964;-72
2022/03/31 06:32:51;;;;;;;15.90;9.80;;;;;;;3.51;91.06;95065.20;107984;1271;40258;-72
2022/03/31 06:35:22;;;;;;;12.10;8.10;;;;;;;3.49;91.02;95070.70;108028;1270;45324;-72
2022/03/31 06:37:54;;;;;;;10.50;7.10;;;;;;;3.46;91.02;95073.03;108045;1270;31942;-72
2022/03/31 06:40:25;;;;;;;14.80;10.20;;;;;;;3.42;91.02;95067.83;108014;1270;44684;-72
2022/03/31 06:42:56;;;;;;;8.20;5.80;;;;;;;3.41;91.06;95069.03;108000;1270;41992;-72
2022/03/31 06:45:27;;;;;;;9.70;6.50;;;;;;;3.37;90.99;95067.48;108007;1271;41371;-72
2022/03/31 06:47:59;;;;;;;11.00;7.60;;;;;;;3.33;90.84;95071.21;108141;1270;26334;-72
2022/03/31 06:50:31;;;;;;;13.00;7.60;;;;;;;3.26;90.67;95074.65;107995;1270;40816;-72
2022/03/31 06:53:02;;;;;;;10.50;7.50;;;;;;;3.21;90.66;95075.09;108012;1268;41613;-73
2022/03/31 06:55:33;;;;;;;12.00;9.00;;;;;;;3.17;90.84;95075.80;107968;1271;45817;-72
2022/03/31 06:58:04;;;;;;;10.60;7.90;;;;;;;3.15;90.95;95081.78;108093;1270;32939;-72
2022/03/31 07:00:35;;;;;;;7.70;5.80;;;;;;;3.16;91.05;95079.84;108058;1270;41633;-72
2022/03/31 07:03:06;;;;;;;6.80;5.50;;;;;;;3.12;90.96;95080.95;108066;1270;29489;-72
2022/03/31 07:05:39;;;;;;;7.60;5.90;;;;;;;3.11;91.05;95083.31;108156;1270;40722;-72
2022/03/31 07:08:10;;;;;;;7.60;5.80;;;;;;;3.11;91.15;95085.94;108009;1271;32422;-73
2022/03/31 07:10:42;;;;;;;7.70;6.10;;;;;;;3.07;91.15;95091.48;108043;1269;31690;-72
2022/03/31 07:13:13;;;;;;;10.60;7.40;;;;;;;3.06;91.12;95090.81;107972;1270;58502;-72
2022/03/31 07:15:44;;;;;;;9.90;7.30;;;;;;;3.04;91.14;95094.22;108036;1270;39338;-72
2022/03/31 07:18:15;;;;;;;11.10;8.70;;;;;;;3.04;91.25;95098.52;108028;1270;41928;-72
2022/03/31 07:20:46;;;;;;;9.50;7.50;;;;;;;3.04;91.47;95098.58;108013;1271;43549;-72
2022/03/31 07:23:18;;;;;;;9.00;7.70;;;;;;;3.07;91.49;95102.58;108005;1270;30245;-72
2022/03/31 07:25:49;;;;;;;8.70;7.00;;;;;;;3.07;91.40;95099.39;108030;1270;38474;-72
2022/03/31 07:28:20;;;;;;;8.20;6.60;;;;;;;3.08;91.45;95101.11;108052;1270;38885;-72
2022/03/31 07:30:53;;;;;;;9.60;7.90;;;;;;;3.07;91.32;95098.60;108103;1270;32035;-72
2022/03/31 07:33:24;;;;;;;10.90;8.60;;;;;;;3.05;91.24;95097.25;108155;1270;46162;-72
2022/03/31 07:35:55;;;;;;;10.00;8.50;;;;;;;3.05;91.33;95101.81;108058;1270;43869;-72
2022/03/31 07:38:26;;;;;;;30.50;24.70;;;;;;;3.06;91.45;95099.17;107909;1271;36758;-72
2022/03/31 07:40:57;;;;;;;13.10;9.70;;;;;;;3.12;91.71;95099.02;107989;1270;41195;-72
2022/03/31 07:43:29;;;;;;;10.50;8.40;;;;;;;3.12;91.44;95103.33;108047;1270;32795;-73
2022/03/31 07:46:00;;;;;;;12.70;9.90;;;;;;;3.14;91.50;95105.50;108001;1270;44583;-72
2022/03/31 07:48:31;;;;;;;11.10;8.50;;;;;;;3.19;91.61;95103.95;107989;1270;47041;-72
2022/03/31 07:51:02;;;;;;;10.80;8.50;;;;;;;3.22;91.57;95106.19;107866;1273;42106;-72
2022/03/31 07:53:34;;;;;;;10.20;8.20;;;;;;;3.21;91.45;95117.92;108061;1270;28312;-72
2022/03/31 07:56:06;;;;;;;49.90;26.50;;;;;;;3.24;91.52;95122.91;108065;1270;26171;-72
2022/03/31 07:58:37;;;;;;;29.20;22.50;;;;;;;3.24;91.62;95122.17;108113;1270;31009;-72
2022/03/31 08:01:08;;;;;;;17.80;14.80;;;;;;;3.29;91.67;95120.64;108104;1270;42990;-72
2022/03/31 08:03:39;;;;;;;12.70;10.40;;;;;;;3.34;91.69;95125.48;108014;1270;45484;-74
2022/03/31 08:06:10;;;;;;;13.10;11.30;;;;;;;3.35;91.61;95124.52;107968;1270;46512;-73
2022/03/31 08:08:41;;;;;;;20.90;15.60;;;;;;;3.37;91.56;95129.18;107948;1270;72042;-72
2022/03/31 08:11:12;;;;;;;12.50;9.80;;;;;;;3.42;91.61;95128.75;108036;1270;40965;-72
2022/03/31 08:13:43;;;;;;;15.10;11.60;;;;;;;3.42;91.45;95130.16;108052;1268;37761;-72
2022/03/31 08:16:14;;;;;;;13.40;10.50;;;;;;;3.39;91.26;95131.85;107991;1270;44675;-72
2022/03/31 08:18:45;;;;;;;16.60;11.80;;;;;;;3.32;91.33;95135.12;108017;1270;44656;-72
2022/03/31 08:21:16;;;;;;;18.20;12.10;;;;;;;3.34;91.49;95136.11;107979;1270;40819;-72
2022/03/31 08:23:47;;;;;;;14.80;11.70;;;;;;;3.35;91.59;95139.66;107889;1273;38667;-72
2022/03/31 08:26:18;;;;;;;16.40;10.70;;;;;;;3.34;91.64;95144.39;108048;1270;37293;-72
2022/03/31 08:28:49;;;;;;;18.40;12.30;;;;;;;3.33;91.39;95144.29;108009;1270;32396;-72
2022/03/31 08:31:20;;;;;;;10.30;8.80;;;;;;;3.34;91.51;95141.87;108064;1270;40532;-72
2022/03/31 08:33:51;;;;;;;12.60;9.10;;;;;;;3.34;91.43;95144.08;107979;1270;40737;-72
2022/03/31 08:36:22;;;;;;;11.60;9.40;;;;;;;3.36;91.50;95142.28;108102;1270;37430;-72
2022/03/31 08:38:53;;;;;;;13.30;10.80;;;;;;;3.33;91.37;95144.70;108032;1270;29353;-72
2022/03/31 08:41:27;;;;;;;12.60;10.00;;;;;;;3.36;91.64;95146.63;108020;1270;39378;-72
2022/03/31 08:43:59;;;;;;;11.10;9.10;;;;;;;3.38;91.58;95146.66;108027;1270;29505;-73
2022/03/31 08:46:34;;;;;;;11.40;8.90;;;;;;;3.40;91.54;95146.05;107989;1271;41170;-72
2022/03/31 08:49:08;;;;;;;10.10;8.60;;;;;;;3.43;91.58;95142.79;108082;1270;31427;-72
2022/03/31 08:51:39;;;;;;;11.10;8.50;;;;;;;3.40;91.49;95138.09;108084;1270;34071;-72
2022/03/31 08:54:10;;;;;;;11.00;8.90;;;;;;;3.39;91.54;95137.25;107941;1270;42182;-73
2022/03/31 08:56:41;;;;;;;13.00;9.60;;;;;;;3.38;91.42;95131.17;108070;1270;32223;-72
2022/03/31 08:59:12;;;;;;;11.20;8.40;;;;;;;3.39;91.49;95131.39;108016;1270;43614;-72
2022/03/31 09:01:43;;;;;;;12.20;8.20;;;;;;;3.40;91.50;95128.19;108050;1270;30901;-72
2022/03/31 09:04:23;;;;;;;10.20;8.40;;;;;;;3.43;91.47;95126.40;107985;1270;42853;-72
2022/03/31 09:07:04;;;;;;;10.20;7.60;;;;;;;3.43;91.50;95128.33;108003;1270;39264;-72
2022/03/31 09:09:46;;;;;;;8.80;7.90;;;;;;;3.45;91.38;95128.99;108034;1270;43984;-72
2022/03/31 09:12:17;;;;;;;8.40;7.50;;;;;;;3.47;91.26;95128.62;108004;1268;37002;-72
2022/03/31 09:14:48;;;;;;;8.60;7.00;;;;;;;3.47;91.27;95126.30;107994;1270;43332;-72
2022/03/31 09:17:19;;;;;;;8.90;7.50;;;;;;;3.36;91.00;95127.82;108014;1270;45035;-72
2022/03/31 09:19:59;;;;;;;9.00;7.30;;;;;;;3.36;91.14;95132.02;108026;1270;37129;-72
2022/03/31 09:22:30;;;;;;;9.90;6.70;;;;;;;3.27;90.89;95134.51;108095;1270;35337;-72
2022/03/31 09:25:05;;;;;;;9.50;7.80;;;;;;;3.02;90.72;95144.45;108077;1270;28725;-72
2022/03/31 09:27:36;;;;;;;8.90;7.40;;;;;;;2.93;91.20;95140.68;108163;1270;31486;-72
2022/03/31 09:30:09;;;;;;;10.30;8.90;;;;;;;2.92;91.39;95139.69;108171;1270;39885;-72
2022/03/31 09:32:51;;;;;;;11.10;8.70;;;;;;;2.99;91.76;95144.09;108093;1270;34171;-74
2022/03/31 09:35:25;;;;;;;12.00;9.40;;;;;;;3.02;91.75;95142.19;108016;1270;41894;-72
2022/03/31 09:37:56;;;;;;;13.60;9.90;;;;;;;3.05;91.85;95142.60;107962;1271;36544;-72
2022/03/31 09:40:37;;;;;;;18.20;14.00;;;;;;;3.14;92.09;95143.36;108031;1270;38256;-72
2022/03/31 09:43:08;;;;;;;15.70;13.10;;;;;;;3.20;92.19;95143.96;108015;1271;41984;-72
2022/03/31 09:45:41;;;;;;;13.00;11.10;;;;;;;3.22;92.08;95143.52;108089;1270;31489;-74
2022/03/31 09:48:21;;;;;;;11.90;10.10;;;;;;;3.25;92.04;95141.35;108087;1270;41257;-72
2022/03/31 09:50:53;;;;;;;11.10;9.10;;;;;;;3.25;92.02;95142.55;108107;1270;27529;-72
2022/03/31 09:53:30;;;;;;;10.90;9.10;;;;;;;3.26;91.96;95143.85;108051;1270;47660;-72
2022/03/31 09:56:02;;;;;;;11.90;10.10;;;;;;;3.26;91.90;95138.98;108024;1270;50652;-72
2022/03/31 09:58:37;;;;;;;14.10;9.90;;;;;;;3.31;91.92;95139.84;108069;1270;44430;-72
2022/03/31 10:01:08;;;;;;;10.00;8.50;;;;;;;3.28;91.75;95135.04;108094;1270;42872;-72
2022/03/31 10:03:40;;;;;;;10.80;9.60;;;;;;;3.24;91.76;95136.16;108076;1270;37396;-72
2022/03/31 10:06:12;;;;;;;11.10;8.70;;;;;;;3.25;91.78;95137.52;108036;1270;38486;-72
2022/03/31 10:08:45;;;;;;;11.60;10.00;;;;;;;3.18;91.73;95130.45;108018;1271;38728;-72
2022/03/31 10:11:19;;;;;;;11.20;9.80;;;;;;;3.18;91.94;95128.36;108089;1270;27964;-72
2022/03/31 10:14:01;;;;;;;11.10;9.90;;;;;;;3.20;91.95;95133.59;107950;1273;31904;-72
2022/03/31 10:16:41;;;;;;;13.40;11.10;;;;;;;3.25;92.23;95132.07;108079;1270;36077;-72
2022/03/31 10:19:13;;;;;;;12.80;11.00;;;;;;;3.31;92.33;95128.48;108056;1270;39278;-72
2022/03/31 10:21:44;;;;;;;11.60;10.30;;;;;;;3.30;92.23;95126.02;108110;1270;38633;-73
2022/03/31 10:24:44;;;;;;;13.40;11.90;;;;;;;3.28;92.12;95124.73;108063;1270;40101;-72
2022/03/31 10:27:28;;;;;;;12.70;11.10;;;;;;;3.27;92.10;95128.13;108091;1270;30158;-72
2022/03/31 10:30:10;;;;;;;12.10;9.50;;;;;;;3.26;92.03;95129.50;108042;1270;30527;-72
2022/03/31 10:32:53;;;;;;;9.40;8.40;;;;;;;3.21;91.98;95129.08;108138;1269;37507;-73
2022/03/31 10:35:27;;;;;;;12.90;10.10;;;;;;;3.11;91.71;95125.04;108046;1270;43023;-72
2022/03/31 10:37:59;;;;;;;14.20;9.70;;;;;;;3.00;91.68;95123.88;108132;1270;42923;-72
2022/03/31 10:40:35;;;;;;;14.40;11.40;;;;;;;2.95;91.96;95125.50;108152;1270;27809;-73
2022/03/31 10:43:07;;;;;;;13.50;11.90;;;;;;;3.01;92.44;95121.05;107975;1271;29296;-72
2022/03/31 10:45:42;;;;;;;19.10;11.90;;;;;;;3.07;92.66;95116.83;108164;1270;31241;-72
2022/03/31 10:48:22;;;;;;;16.70;11.80;;;;;;;3.09;92.75;95118.55;108152;1270;38234;-72
2022/03/31 10:51:05;;;;;;;15.00;12.30;;;;;;;3.10;92.71;95119.13;108117;1270;32505;-72
2022/03/31 10:53:39;;;;;;;16.50;13.30;;;;;;;3.10;92.67;95114.15;108097;1270;40463;-72
2022/03/31 10:56:24;;;;;;;20.50;13.30;;;;;;;3.08;92.64;95115.88;108082;1270;45513;-73
2022/03/31 10:58:57;;;;;;;15.80;13.10;;;;;;;3.08;92.75;95113.89;108032;1270;36082;-72
2022/03/31 11:01:31;;;;;;;17.10;13.80;;;;;;;3.09;92.70;95111.05;108102;1270;37467;-72
2022/03/31 11:04:08;;;;;;;23.00;15.50;;;;;;;3.08;92.72;95110.27;108076;1270;39874;-72
2022/03/31 11:06:49;;;;;;;23.00;13.80;;;;;;;3.06;92.72;95110.50;108110;1268;38372;-73
2022/03/31 11:09:26;;;;;;;21.90;17.10;;;;;;;3.00;92.85;95106.29;108025;1270;45117;-72
2022/03/31 11:11:59;;;;;;;20.50;13.70;;;;;;;3.02;93.09;95097.27;108061;1268;40793;-72
2022/03/31 11:14:31;;;;;;;21.70;14.80;;;;;;;3.02;93.01;95095.76;108057;1270;47023;-72
2022/03/31 11:17:03;;;;;;;35.90;20.10;;;;;;;3.01;93.02;95097.59;108054;1270;37836;-72
2022/03/31 11:19:40;;;;;;;39.70;24.30;;;;;;;3.05;93.17;95094.95;108084;1270;32502;-72
2022/03/31 11:22:21;;;;;;;37.80;25.20;;;;;;;3.06;93.12;95091.08;108002;1270;33039;-73
2022/03/31 11:24:54;;;;;;;16.80;13.90;;;;;;;3.05;93.19;95082.17;108052;1270;37820;-72
2022/03/31 11:27:38;;;;;;;86.30;50.60;;;;;;;3.04;93.21;95084.59;108112;1270;31644;-72
2022/03/31 11:30:13;;;;;;;23.60;20.60;;;;;;;3.07;93.31;95077.73;108134;1270;41494;-72
2022/03/31 11:32:48;;;;;;;14.30;11.90;;;;;;;3.09;93.21;95078.18;108086;1270;42702;-72
2022/03/31 11:35:21;;;;;;;13.30;10.80;;;;;;;3.07;93.15;95074.46;108040;1270;39717;-72
2022/03/31 11:37:54;;;;;;;11.10;8.70;;;;;;;3.08;93.17;95072.27;108096;1270;33533;-72
2022/03/31 11:40:29;;;;;;;10.70;9.10;;;;;;;3.06;93.15;95069.39;108123;1270;31368;-72
2022/03/31 11:43:03;;;;;;;10.90;8.90;;;;;;;3.08;93.25;95072.58;108025;1270;41686;-72
2022/03/31 11:45:36;;;;;;;13.10;10.20;;;;;;;3.13;93.24;95073.73;108023;1270;38733;-72